Atlantic Beach, New York
Current Conditions -  °F | °C
As of 5:51 AM on Friday 19 Dec 2014 (Local Time) from KJFK Reporting Station
Overcast Overcast  
Wind Chill: 31°   Ceiling: 3700
Heat Index: 38°   Visibility: 10mi
Dew Point: 22°   Wind: 10mph
Humidity: 53%   Direction: 320°NW
Pressure: 30"   Gusts: 21mph
Location:  40.59°N, 73.73°W
Report Text: KJFK 191051Z 32009G18KT 10SM OVC037 03/M06 A3000 RMK AO2 SLP157 T00331056 $
Loading
Personal Weather Stations






























Interactive Weather Map New forecast layout! Learn more

10-Day Weather Forecast

Advertisements
Track Severe Weather on mobile